sensor_id;sensor_type;location;lat;lon;timestamp;P1;durP1;ratioP1;P2;durP2;ratioP2
11287;SDS011;5700;50.996;7.044;2023-10-09T00:02:56;16.05;;;7.10;;
11287;SDS011;5700;50.996;7.044;2023-10-09T00:06:00;14.07;;;6.95;;
11287;SDS011;5700;50.996;7.044;2023-10-09T00:09:04;14.75;;;7.13;;
11287;SDS011;5700;50.996;7.044;2023-10-09T00:12:25;13.57;;;6.78;;
11287;SDS011;5700;50.996;7.044;2023-10-09T00:15:29;16.75;;;7.50;;
11287;SDS011;5700;50.996;7.044;2023-10-09T00:18:34;10.25;;;5.65;;
11287;SDS011;5700;50.996;7.044;2023-10-09T00:21:35;15.65;;;7.32;;
11287;SDS011;5700;50.996;7.044;2023-10-09T00:24:38;14.63;;;6.80;;
11287;SDS011;5700;50.996;7.044;2023-10-09T00:27:46;14.07;;;6.30;;
11287;SDS011;5700;50.996;7.044;2023-10-09T00:30:49;12.45;;;6.25;;
11287;SDS011;5700;50.996;7.044;2023-10-09T00:33:52;13.32;;;6.72;;
11287;SDS011;5700;50.996;7.044;2023-10-09T00:36:55;14.55;;;6.80;;
11287;SDS011;5700;50.996;7.044;2023-10-09T00:40:04;16.13;;;6.30;;
11287;SDS011;5700;50.996;7.044;2023-10-09T00:43:13;11.52;;;5.93;;
11287;SDS011;5700;50.996;7.044;2023-10-09T00:46:16;11.75;;;5.63;;
11287;SDS011;5700;50.996;7.044;2023-10-09T00:49:24;12.88;;;6.05;;
11287;SDS011;5700;50.996;7.044;2023-10-09T00:52:28;14.05;;;6.20;;
11287;SDS011;5700;50.996;7.044;2023-10-09T00:55:37;13.02;;;6.20;;
11287;SDS011;5700;50.996;7.044;2023-10-09T00:58:45;13.95;;;6.10;;
11287;SDS011;5700;50.996;7.044;2023-10-09T01:01:50;10.27;;;5.60;;
11287;SDS011;5700;50.996;7.044;2023-10-09T01:04:58;13.27;;;5.82;;
11287;SDS011;5700;50.996;7.044;2023-10-09T01:07:59;13.10;;;5.97;;
11287;SDS011;5700;50.996;7.044;2023-10-09T01:11:02;12.75;;;6.60;;
11287;SDS011;5700;50.996;7.044;2023-10-09T01:14:10;11.57;;;5.93;;
11287;SDS011;5700;50.996;7.044;2023-10-09T01:17:14;15.88;;;6.03;;
11287;SDS011;5700;50.996;7.044;2023-10-09T01:20:29;11.15;;;5.50;;
11287;SDS011;5700;50.996;7.044;2023-10-09T01:23:38;14.32;;;5.50;;
11287;SDS011;5700;50.996;7.044;2023-10-09T01:26:44;11.75;;;5.18;;
11287;SDS011;5700;50.996;7.044;2023-10-09T01:29:46;12.40;;;5.45;;
11287;SDS011;5700;50.996;7.044;2023-10-09T01:32:48;12.40;;;5.30;;
11287;SDS011;5700;50.996;7.044;2023-10-09T01:35:50;11.05;;;5.60;;
11287;SDS011;5700;50.996;7.044;2023-10-09T01:39:00;10.93;;;5.20;;
11287;SDS011;5700;50.996;7.044;2023-10-09T01:42:08;12.55;;;5.35;;
11287;SDS011;5700;50.996;7.044;2023-10-09T01:45:10;12.70;;;6.30;;
11287;SDS011;5700;50.996;7.044;2023-10-09T01:48:27;13.07;;;5.63;;
11287;SDS011;5700;50.996;7.044;2023-10-09T01:51:32;10.32;;;5.57;;
11287;SDS011;5700;50.996;7.044;2023-10-09T01:54:38;11.27;;;5.25;;
11287;SDS011;5700;50.996;7.044;2023-10-09T01:57:41;12.30;;;5.53;;
11287;SDS011;5700;50.996;7.044;2023-10-09T02:00:44;10.75;;;5.30;;
11287;SDS011;5700;50.996;7.044;2023-10-09T02:03:49;14.25;;;5.05;;
11287;SDS011;5700;50.996;7.044;2023-10-09T02:06:52;10.90;;;5.38;;
11287;SDS011;5700;50.996;7.044;2023-10-09T02:09:56;9.50;;;5.07;;
11287;SDS011;5700;50.996;7.044;2023-10-09T02:12:58;10.63;;;5.15;;
11287;SDS011;5700;50.996;7.044;2023-10-09T02:16:06;13.25;;;5.95;;
11287;SDS011;5700;50.996;7.044;2023-10-09T02:19:15;9.80;;;4.40;;
11287;SDS011;5700;50.996;7.044;2023-10-09T02:22:31;11.73;;;5.63;;
11287;SDS011;5700;50.996;7.044;2023-10-09T02:25:36;11.23;;;5.03;;
11287;SDS011;5700;50.996;7.044;2023-10-09T02:28:42;12.23;;;4.30;;
11287;SDS011;5700;50.996;7.044;2023-10-09T02:31:44;8.02;;;4.45;;
11287;SDS011;5700;50.996;7.044;2023-10-09T02:34:51;9.98;;;4.68;;
11287;SDS011;5700;50.996;7.044;2023-10-09T02:37:54;11.52;;;5.50;;
11287;SDS011;5700;50.996;7.044;2023-10-09T02:40:57;10.52;;;4.88;;
11287;SDS011;5700;50.996;7.044;2023-10-09T02:44:17;11.52;;;4.80;;
11287;SDS011;5700;50.996;7.044;2023-10-09T02:47:24;16.88;;;5.57;;
11287;SDS011;5700;50.996;7.044;2023-10-09T02:50:29;8.00;;;4.25;;
11287;SDS011;5700;50.996;7.044;2023-10-09T02:53:34;10.20;;;4.75;;
11287;SDS011;5700;50.996;7.044;2023-10-09T02:56:38;9.55;;;4.72;;
11287;SDS011;5700;50.996;7.044;2023-10-09T02:59:43;9.50;;;4.70;;
11287;SDS011;5700;50.996;7.044;2023-10-09T03:02:45;10.27;;;4.50;;
11287;SDS011;5700;50.996;7.044;2023-10-09T03:05:49;13.32;;;4.80;;
11287;SDS011;5700;50.996;7.044;2023-10-09T03:08:51;10.90;;;5.53;;
11287;SDS011;5700;50.996;7.044;2023-10-09T03:11:56;9.13;;;4.15;;
11287;SDS011;5700;50.996;7.044;2023-10-09T03:15:02;9.07;;;4.78;;
11287;SDS011;5700;50.996;7.044;2023-10-09T03:18:06;8.55;;;4.15;;
11287;SDS011;5700;50.996;7.044;2023-10-09T03:21:07;9.25;;;4.60;;
11287;SDS011;5700;50.996;7.044;2023-10-09T03:24:10;9.45;;;4.60;;
11287;SDS011;5700;50.996;7.044;2023-10-09T03:27:13;9.77;;;4.63;;
11287;SDS011;5700;50.996;7.044;2023-10-09T03:30:16;10.45;;;3.95;;
11287;SDS011;5700;50.996;7.044;2023-10-09T03:33:22;9.32;;;4.03;;
11287;SDS011;5700;50.996;7.044;2023-10-09T03:36:25;9.88;;;4.03;;
11287;SDS011;5700;50.996;7.044;2023-10-09T03:39:29;10.77;;;4.53;;
11287;SDS011;5700;50.996;7.044;2023-10-09T03:42:42;9.95;;;4.75;;
11287;SDS011;5700;50.996;7.044;2023-10-09T03:45:44;9.93;;;4.38;;
11287;SDS011;5700;50.996;7.044;2023-10-09T03:48:52;10.00;;;4.70;;
11287;SDS011;5700;50.996;7.044;2023-10-09T03:51:57;10.88;;;4.10;;
11287;SDS011;5700;50.996;7.044;2023-10-09T03:54:59;9.65;;;4.53;;
11287;SDS011;5700;50.996;7.044;2023-10-09T03:58:02;8.45;;;3.70;;
11287;SDS011;5700;50.996;7.044;2023-10-09T04:01:06;9.65;;;4.07;;
11287;SDS011;5700;50.996;7.044;2023-10-09T04:04:10;8.02;;;3.70;;
11287;SDS011;5700;50.996;7.044;2023-10-09T04:07:14;12.68;;;4.18;;
11287;SDS011;5700;50.996;7.044;2023-10-09T04:10:16;10.98;;;4.00;;
11287;SDS011;5700;50.996;7.044;2023-10-09T04:13:33;9.15;;;4.00;;
11287;SDS011;5700;50.996;7.044;2023-10-09T04:16:35;9.27;;;4.25;;
11287;SDS011;5700;50.996;7.044;2023-10-09T04:19:51;10.27;;;3.90;;
11287;SDS011;5700;50.996;7.044;2023-10-09T04:23:19;9.10;;;4.22;;
11287;SDS011;5700;50.996;7.044;2023-10-09T04:26:34;8.85;;;4.10;;
11287;SDS011;5700;50.996;7.044;2023-10-09T04:29:38;8.93;;;4.00;;
11287;SDS011;5700;50.996;7.044;2023-10-09T04:32:47;8.93;;;4.03;;
11287;SDS011;5700;50.996;7.044;2023-10-09T04:35:49;11.55;;;4.57;;
11287;SDS011;5700;50.996;7.044;2023-10-09T04:39:12;10.30;;;3.92;;
11287;SDS011;5700;50.996;7.044;2023-10-09T04:42:28;9.07;;;4.38;;
11287;SDS011;5700;50.996;7.044;2023-10-09T04:45:39;10.05;;;3.97;;
11287;SDS011;5700;50.996;7.044;2023-10-09T04:48:54;9.38;;;4.68;;
11287;SDS011;5700;50.996;7.044;2023-10-09T04:52:07;10.13;;;4.60;;
11287;SDS011;5700;50.996;7.044;2023-10-09T04:55:18;8.13;;;3.85;;
11287;SDS011;5700;50.996;7.044;2023-10-09T04:58:20;9.60;;;4.57;;
11287;SDS011;5700;50.996;7.044;2023-10-09T05:01:27;10.93;;;5.05;;
11287;SDS011;5700;50.996;7.044;2023-10-09T05:04:36;10.50;;;4.57;;
11287;SDS011;5700;50.996;7.044;2023-10-09T05:07:41;13.13;;;4.45;;
11287;SDS011;5700;50.996;7.044;2023-10-09T05:10:55;8.80;;;3.97;;
11287;SDS011;5700;50.996;7.044;2023-10-09T05:14:15;10.77;;;4.47;;
11287;SDS011;5700;50.996;7.044;2023-10-09T05:17:18;11.38;;;4.80;;
11287;SDS011;5700;50.996;7.044;2023-10-09T05:20:25;10.38;;;4.55;;
11287;SDS011;5700;50.996;7.044;2023-10-09T05:23:40;8.60;;;4.13;;
11287;SDS011;5700;50.996;7.044;2023-10-09T05:26:45;8.52;;;4.15;;
11287;SDS011;5700;50.996;7.044;2023-10-09T05:29:51;8.60;;;4.32;;
11287;SDS011;5700;50.996;7.044;2023-10-09T05:33:08;12.90;;;4.15;;
11287;SDS011;5700;50.996;7.044;2023-10-09T05:36:23;9.73;;;4.07;;
11287;SDS011;5700;50.996;7.044;2023-10-09T05:39:35;10.70;;;3.97;;
11287;SDS011;5700;50.996;7.044;2023-10-09T05:42:42;11.02;;;4.75;;
11287;SDS011;5700;50.996;7.044;2023-10-09T05:45:43;6.90;;;3.78;;
11287;SDS011;5700;50.996;7.044;2023-10-09T05:49:00;8.27;;;3.92;;
11287;SDS011;5700;50.996;7.044;2023-10-09T05:52:09;8.38;;;3.85;;
11287;SDS011;5700;50.996;7.044;2023-10-09T05:55:32;9.25;;;4.50;;
11287;SDS011;5700;50.996;7.044;2023-10-09T05:58:47;8.98;;;4.07;;
11287;SDS011;5700;50.996;7.044;2023-10-09T06:02:03;10.35;;;4.13;;
11287;SDS011;5700;50.996;7.044;2023-10-09T06:05:20;9.32;;;4.60;;
11287;SDS011;5700;50.996;7.044;2023-10-09T06:08:36;9.23;;;4.43;;
11287;SDS011;5700;50.996;7.044;2023-10-09T06:12:08;11.02;;;4.35;;
11287;SDS011;5700;50.996;7.044;2023-10-09T06:15:24;9.30;;;4.90;;
11287;SDS011;5700;50.996;7.044;2023-10-09T06:18:51;8.82;;;4.18;;
11287;SDS011;5700;50.996;7.044;2023-10-09T06:22:09;9.07;;;4.43;;
11287;SDS011;5700;50.996;7.044;2023-10-09T06:25:40;10.40;;;4.70;;
11287;SDS011;5700;50.996;7.044;2023-10-09T06:28:50;7.78;;;3.85;;
11287;SDS011;5700;50.996;7.044;2023-10-09T06:32:13;9.18;;;3.58;;
11287;SDS011;5700;50.996;7.044;2023-10-09T06:35:34;9.10;;;4.40;;
11287;SDS011;5700;50.996;7.044;2023-10-09T06:38:37;8.20;;;4.35;;
11287;SDS011;5700;50.996;7.044;2023-10-09T06:41:52;12.70;;;4.43;;
11287;SDS011;5700;50.996;7.044;2023-10-09T06:45:09;11.43;;;4.85;;
11287;SDS011;5700;50.996;7.044;2023-10-09T06:48:16;9.13;;;4.35;;
11287;SDS011;5700;50.996;7.044;2023-10-09T06:51:31;8.07;;;4.60;;
11287;SDS011;5700;50.996;7.044;2023-10-09T06:54:43;11.82;;;4.30;;
11287;SDS011;5700;50.996;7.044;2023-10-09T06:57:50;8.68;;;4.50;;
11287;SDS011;5700;50.996;7.044;2023-10-09T07:00:55;10.02;;;4.00;;
11287;SDS011;5700;50.996;7.044;2023-10-09T07:04:19;8.63;;;4.05;;
11287;SDS011;5700;50.996;7.044;2023-10-09T07:07:41;7.32;;;3.97;;
11287;SDS011;5700;50.996;7.044;2023-10-09T07:10:56;9.55;;;4.82;;
11287;SDS011;5700;50.996;7.044;2023-10-09T07:14:17;7.85;;;4.10;;
11287;SDS011;5700;50.996;7.044;2023-10-09T07:17:45;7.00;;;3.92;;
11287;SDS011;5700;50.996;7.044;2023-10-09T07:20:47;9.40;;;4.38;;
11287;SDS011;5700;50.996;7.044;2023-10-09T07:23:59;6.38;;;3.65;;
11287;SDS011;5700;50.996;7.044;2023-10-09T07:27:14;9.57;;;4.45;;
11287;SDS011;5700;50.996;7.044;2023-10-09T07:30:16;7.38;;;3.50;;
11287;SDS011;5700;50.996;7.044;2023-10-09T07:33:34;7.72;;;3.80;;
11287;SDS011;5700;50.996;7.044;2023-10-09T07:36:49;9.05;;;4.40;;
11287;SDS011;5700;50.996;7.044;2023-10-09T07:39:56;6.68;;;3.42;;
11287;SDS011;5700;50.996;7.044;2023-10-09T07:42:58;8.80;;;3.97;;
11287;SDS011;5700;50.996;7.044;2023-10-09T07:46:05;9.30;;;4.47;;
11287;SDS011;5700;50.996;7.044;2023-10-09T07:49:22;9.18;;;4.32;;
11287;SDS011;5700;50.996;7.044;2023-10-09T07:52:26;11.43;;;4.97;;
11287;SDS011;5700;50.996;7.044;2023-10-09T07:55:29;8.75;;;3.95;;
11287;SDS011;5700;50.996;7.044;2023-10-09T07:58:39;5.95;;;3.20;;
11287;SDS011;5700;50.996;7.044;2023-10-09T08:01:48;6.70;;;3.60;;
11287;SDS011;5700;50.996;7.044;2023-10-09T08:04:54;7.72;;;3.75;;
11287;SDS011;5700;50.996;7.044;2023-10-09T08:07:56;8.18;;;4.32;;
11287;SDS011;5700;50.996;7.044;2023-10-09T08:11:18;8.05;;;3.72;;
11287;SDS011;5700;50.996;7.044;2023-10-09T08:14:33;7.85;;;3.80;;
11287;SDS011;5700;50.996;7.044;2023-10-09T08:17:50;8.07;;;3.85;;
11287;SDS011;5700;50.996;7.044;2023-10-09T08:20:56;8.13;;;4.00;;
11287;SDS011;5700;50.996;7.044;2023-10-09T08:24:11;7.80;;;3.80;;
11287;SDS011;5700;50.996;7.044;2023-10-09T08:27:27;6.03;;;3.25;;
11287;SDS011;5700;50.996;7.044;2023-10-09T08:30:49;9.23;;;3.67;;
11287;SDS011;5700;50.996;7.044;2023-10-09T08:33:51;8.27;;;4.13;;
11287;SDS011;5700;50.996;7.044;2023-10-09T08:36:59;9.25;;;4.30;;
11287;SDS011;5700;50.996;7.044;2023-10-09T08:40:00;5.95;;;3.50;;
11287;SDS011;5700;50.996;7.044;2023-10-09T08:43:08;8.05;;;3.83;;
11287;SDS011;5700;50.996;7.044;2023-10-09T08:46:11;7.43;;;3.92;;
11287;SDS011;5700;50.996;7.044;2023-10-09T08:49:18;12.68;;;6.25;;
11287;SDS011;5700;50.996;7.044;2023-10-09T08:52:23;12.18;;;5.10;;
11287;SDS011;5700;50.996;7.044;2023-10-09T08:55:25;10.65;;;5.32;;
11287;SDS011;5700;50.996;7.044;2023-10-09T08:58:27;9.85;;;4.90;;
11287;SDS011;5700;50.996;7.044;2023-10-09T09:01:32;9.45;;;4.97;;
11287;SDS011;5700;50.996;7.044;2023-10-09T09:04:34;9.27;;;4.65;;
11287;SDS011;5700;50.996;7.044;2023-10-09T09:07:39;11.48;;;4.55;;
11287;SDS011;5700;50.996;7.044;2023-10-09T09:10:42;8.32;;;4.07;;
11287;SDS011;5700;50.996;7.044;2023-10-09T09:13:47;13.10;;;4.63;;
11287;SDS011;5700;50.996;7.044;2023-10-09T09:16:50;7.75;;;4.25;;
11287;SDS011;5700;50.996;7.044;2023-10-09T09:19:52;7.60;;;4.00;;
11287;SDS011;5700;50.996;7.044;2023-10-09T09:22:56;8.95;;;4.47;;
11287;SDS011;5700;50.996;7.044;2023-10-09T09:25:57;9.70;;;4.88;;
11287;SDS011;5700;50.996;7.044;2023-10-09T09:29:01;10.02;;;4.32;;
11287;SDS011;5700;50.996;7.044;2023-10-09T09:32:04;16.73;;;6.18;;
11287;SDS011;5700;50.996;7.044;2023-10-09T09:35:16;12.77;;;5.80;;
11287;SDS011;5700;50.996;7.044;2023-10-09T09:38:20;13.20;;;5.22;;
11287;SDS011;5700;50.996;7.044;2023-10-09T09:41:23;8.48;;;4.80;;
11287;SDS011;5700;50.996;7.044;2023-10-09T09:44:26;14.02;;;4.57;;
11287;SDS011;5700;50.996;7.044;2023-10-09T09:47:30;11.35;;;5.25;;
11287;SDS011;5700;50.996;7.044;2023-10-09T09:50:36;7.18;;;3.83;;
11287;SDS011;5700;50.996;7.044;2023-10-09T09:53:45;9.93;;;5.00;;
11287;SDS011;5700;50.996;7.044;2023-10-09T09:56:49;9.98;;;5.13;;
11287;SDS011;5700;50.996;7.044;2023-10-09T09:59:53;9.60;;;4.90;;
11287;SDS011;5700;50.996;7.044;2023-10-09T10:02:57;9.27;;;4.68;;
11287;SDS011;5700;50.996;7.044;2023-10-09T10:06:00;9.35;;;4.22;;
11287;SDS011;5700;50.996;7.044;2023-10-09T10:09:11;9.60;;;4.30;;
11287;SDS011;5700;50.996;7.044;2023-10-09T10:16:04;9.52;;;3.83;;
11287;SDS011;5700;50.996;7.044;2023-10-09T10:19:20;7.60;;;4.25;;
11287;SDS011;5700;50.996;7.044;2023-10-09T10:22:23;8.63;;;3.85;;
11287;SDS011;5700;50.996;7.044;2023-10-09T10:25:35;8.45;;;3.80;;
11287;SDS011;5700;50.996;7.044;2023-10-09T10:28:41;6.55;;;3.30;;
11287;SDS011;5700;50.996;7.044;2023-10-09T10:31:53;11.52;;;3.60;;
11287;SDS011;5700;50.996;7.044;2023-10-09T10:34:55;9.48;;;3.60;;
11287;SDS011;5700;50.996;7.044;2023-10-09T10:37:57;9.45;;;3.65;;
11287;SDS011;5700;50.996;7.044;2023-10-09T10:41:13;9.40;;;3.85;;
11287;SDS011;5700;50.996;7.044;2023-10-09T10:44:27;8.45;;;3.25;;
11287;SDS011;5700;50.996;7.044;2023-10-09T10:47:43;8.82;;;3.58;;
11287;SDS011;5700;50.996;7.044;2023-10-09T10:50:47;8.90;;;3.60;;
11287;SDS011;5700;50.996;7.044;2023-10-09T10:53:50;8.40;;;3.13;;
11287;SDS011;5700;50.996;7.044;2023-10-09T10:56:59;6.70;;;2.95;;
11287;SDS011;5700;50.996;7.044;2023-10-09T11:00:00;8.57;;;3.45;;
11287;SDS011;5700;50.996;7.044;2023-10-09T11:03:17;11.88;;;3.60;;
11287;SDS011;5700;50.996;7.044;2023-10-09T11:06:24;8.35;;;3.40;;
11287;SDS011;5700;50.996;7.044;2023-10-09T11:09:44;7.10;;;3.10;;
11287;SDS011;5700;50.996;7.044;2023-10-09T11:13:08;6.75;;;3.35;;
11287;SDS011;5700;50.996;7.044;2023-10-09T11:16:24;6.20;;;2.75;;
11287;SDS011;5700;50.996;7.044;2023-10-09T11:19:40;8.48;;;2.90;;
11287;SDS011;5700;50.996;7.044;2023-10-09T11:22:43;9.23;;;3.60;;
11287;SDS011;5700;50.996;7.044;2023-10-09T11:26:05;6.93;;;3.00;;
11287;SDS011;5700;50.996;7.044;2023-10-09T11:29:23;8.20;;;2.78;;
11287;SDS011;5700;50.996;7.044;2023-10-09T11:32:29;8.85;;;3.13;;
11287;SDS011;5700;50.996;7.044;2023-10-09T11:35:32;7.20;;;3.05;;
11287;SDS011;5700;50.996;7.044;2023-10-09T11:38:35;7.10;;;3.08;;
11287;SDS011;5700;50.996;7.044;2023-10-09T11:41:39;7.32;;;2.92;;
11287;SDS011;5700;50.996;7.044;2023-10-09T11:44:42;7.05;;;2.80;;
11287;SDS011;5700;50.996;7.044;2023-10-09T11:47:46;8.85;;;3.40;;
11287;SDS011;5700;50.996;7.044;2023-10-09T11:50:56;8.27;;;2.67;;
11287;SDS011;5700;50.996;7.044;2023-10-09T11:54:28;5.75;;;2.45;;
11287;SDS011;5700;50.996;7.044;2023-10-09T11:57:31;7.90;;;2.92;;
11287;SDS011;5700;50.996;7.044;2023-10-09T12:00:34;6.70;;;2.72;;
11287;SDS011;5700;50.996;7.044;2023-10-09T12:03:50;8.82;;;3.78;;
11287;SDS011;5700;50.996;7.044;2023-10-09T12:06:53;9.75;;;3.88;;
11287;SDS011;5700;50.996;7.044;2023-10-09T12:10:06;9.13;;;3.83;;
11287;SDS011;5700;50.996;7.044;2023-10-09T12:13:10;7.75;;;4.35;;
11287;SDS011;5700;50.996;7.044;2023-10-09T12:16:13;10.85;;;3.85;;
11287;SDS011;5700;50.996;7.044;2023-10-09T12:19:15;10.80;;;3.80;;
11287;SDS011;5700;50.996;7.044;2023-10-09T12:22:18;7.80;;;3.42;;
11287;SDS011;5700;50.996;7.044;2023-10-09T12:25:21;8.13;;;3.55;;
11287;SDS011;5700;50.996;7.044;2023-10-09T12:28:23;8.93;;;3.25;;
11287;SDS011;5700;50.996;7.044;2023-10-09T12:31:26;7.20;;;3.70;;
11287;SDS011;5700;50.996;7.044;2023-10-09T12:34:33;9.15;;;3.85;;
11287;SDS011;5700;50.996;7.044;2023-10-09T12:37:38;9.65;;;4.03;;
11287;SDS011;5700;50.996;7.044;2023-10-09T12:40:41;8.63;;;3.95;;
11287;SDS011;5700;50.996;7.044;2023-10-09T12:43:50;8.25;;;4.10;;
11287;SDS011;5700;50.996;7.044;2023-10-09T12:46:53;10.65;;;3.72;;
11287;SDS011;5700;50.996;7.044;2023-10-09T12:49:56;7.57;;;3.70;;
11287;SDS011;5700;50.996;7.044;2023-10-09T12:52:58;8.20;;;3.63;;
11287;SDS011;5700;50.996;7.044;2023-10-09T12:56:02;10.60;;;3.92;;
11287;SDS011;5700;50.996;7.044;2023-10-09T12:59:04;10.43;;;3.95;;
11287;SDS011;5700;50.996;7.044;2023-10-09T13:02:08;8.50;;;3.85;;
11287;SDS011;5700;50.996;7.044;2023-10-09T13:05:11;13.20;;;4.10;;
11287;SDS011;5700;50.996;7.044;2023-10-09T13:08:26;6.85;;;3.47;;
11287;SDS011;5700;50.996;7.044;2023-10-09T13:11:31;9.00;;;4.30;;
11287;SDS011;5700;50.996;7.044;2023-10-09T13:14:36;8.48;;;3.55;;
11287;SDS011;5700;50.996;7.044;2023-10-09T13:17:39;11.98;;;3.97;;
11287;SDS011;5700;50.996;7.044;2023-10-09T13:20:41;10.63;;;3.60;;
11287;SDS011;5700;50.996;7.044;2023-10-09T13:23:42;9.95;;;4.40;;
11287;SDS011;5700;50.996;7.044;2023-10-09T13:26:46;8.13;;;3.80;;
11287;SDS011;5700;50.996;7.044;2023-10-09T13:29:52;8.50;;;3.92;;
11287;SDS011;5700;50.996;7.044;2023-10-09T13:33:06;8.23;;;4.20;;
11287;SDS011;5700;50.996;7.044;2023-10-09T13:36:14;8.48;;;3.83;;
11287;SDS011;5700;50.996;7.044;2023-10-09T13:39:19;7.88;;;3.30;;
11287;SDS011;5700;50.996;7.044;2023-10-09T13:42:23;12.20;;;4.40;;
11287;SDS011;5700;50.996;7.044;2023-10-09T13:45:26;10.50;;;5.35;;
11287;SDS011;5700;50.996;7.044;2023-10-09T13:48:29;11.52;;;3.90;;
11287;SDS011;5700;50.996;7.044;2023-10-09T13:51:38;7.18;;;3.17;;
11287;SDS011;5700;50.996;7.044;2023-10-09T13:54:43;10.48;;;5.15;;
11287;SDS011;5700;50.996;7.044;2023-10-09T13:57:48;11.50;;;4.25;;
11287;SDS011;5700;50.996;7.044;2023-10-09T14:00:49;12.07;;;4.90;;
11287;SDS011;5700;50.996;7.044;2023-10-09T14:03:55;11.30;;;4.72;;
11287;SDS011;5700;50.996;7.044;2023-10-09T14:06:58;9.45;;;4.32;;
11287;SDS011;5700;50.996;7.044;2023-10-09T14:10:01;9.73;;;4.10;;
11287;SDS011;5700;50.996;7.044;2023-10-09T14:13:17;12.68;;;4.30;;
11287;SDS011;5700;50.996;7.044;2023-10-09T14:16:26;10.05;;;4.10;;
11287;SDS011;5700;50.996;7.044;2023-10-09T14:19:30;11.02;;;4.47;;
11287;SDS011;5700;50.996;7.044;2023-10-09T14:22:33;9.88;;;4.03;;
11287;SDS011;5700;50.996;7.044;2023-10-09T14:25:38;10.25;;;4.47;;
11287;SDS011;5700;50.996;7.044;2023-10-09T14:28:40;10.80;;;4.18;;
11287;SDS011;5700;50.996;7.044;2023-10-09T14:31:43;9.35;;;4.45;;
11287;SDS011;5700;50.996;7.044;2023-10-09T14:34:50;8.98;;;3.92;;
11287;SDS011;5700;50.996;7.044;2023-10-09T14:37:54;10.80;;;4.22;;
11287;SDS011;5700;50.996;7.044;2023-10-09T14:40:56;5.80;;;3.13;;
11287;SDS011;5700;50.996;7.044;2023-10-09T14:43:59;7.05;;;3.30;;
11287;SDS011;5700;50.996;7.044;2023-10-09T14:47:01;9.35;;;4.75;;
11287;SDS011;5700;50.996;7.044;2023-10-09T14:50:07;10.52;;;4.38;;
11287;SDS011;5700;50.996;7.044;2023-10-09T14:53:12;10.30;;;4.35;;
11287;SDS011;5700;50.996;7.044;2023-10-09T14:56:15;7.35;;;3.80;;
11287;SDS011;5700;50.996;7.044;2023-10-09T14:59:18;9.63;;;4.05;;
11287;SDS011;5700;50.996;7.044;2023-10-09T15:02:22;9.50;;;4.00;;
11287;SDS011;5700;50.996;7.044;2023-10-09T15:05:25;10.43;;;4.20;;
11287;SDS011;5700;50.996;7.044;2023-10-09T15:08:26;8.45;;;3.33;;
11287;SDS011;5700;50.996;7.044;2023-10-09T15:11:27;9.55;;;3.80;;
11287;SDS011;5700;50.996;7.044;2023-10-09T15:14:29;8.52;;;4.15;;
11287;SDS011;5700;50.996;7.044;2023-10-09T15:17:32;10.05;;;4.32;;
11287;SDS011;5700;50.996;7.044;2023-10-09T15:20:35;8.82;;;3.92;;
11287;SDS011;5700;50.996;7.044;2023-10-09T15:23:38;9.02;;;4.40;;
11287;SDS011;5700;50.996;7.044;2023-10-09T15:26:39;8.25;;;4.05;;
11287;SDS011;5700;50.996;7.044;2023-10-09T15:29:41;10.63;;;4.03;;
11287;SDS011;5700;50.996;7.044;2023-10-09T15:32:45;7.55;;;3.33;;
11287;SDS011;5700;50.996;7.044;2023-10-09T15:35:48;10.00;;;4.07;;
11287;SDS011;5700;50.996;7.044;2023-10-09T15:38:50;10.38;;;4.40;;
11287;SDS011;5700;50.996;7.044;2023-10-09T15:41:51;9.98;;;4.53;;
11287;SDS011;5700;50.996;7.044;2023-10-09T15:44:53;11.05;;;3.60;;
11287;SDS011;5700;50.996;7.044;2023-10-09T15:47:54;9.90;;;4.20;;
11287;SDS011;5700;50.996;7.044;2023-10-09T15:50:58;10.35;;;4.18;;
11287;SDS011;5700;50.996;7.044;2023-10-09T15:54:00;7.30;;;3.85;;
11287;SDS011;5700;50.996;7.044;2023-10-09T15:57:01;7.75;;;3.83;;
11287;SDS011;5700;50.996;7.044;2023-10-09T16:00:03;10.00;;;4.20;;
11287;SDS011;5700;50.996;7.044;2023-10-09T16:03:13;7.50;;;3.75;;
11287;SDS011;5700;50.996;7.044;2023-10-09T16:06:16;10.02;;;4.10;;
11287;SDS011;5700;50.996;7.044;2023-10-09T16:09:19;9.77;;;4.40;;
11287;SDS011;5700;50.996;7.044;2023-10-09T16:12:21;9.35;;;4.45;;
11287;SDS011;5700;50.996;7.044;2023-10-09T16:15:23;9.70;;;3.88;;
11287;SDS011;5700;50.996;7.044;2023-10-09T16:18:27;10.90;;;4.80;;
11287;SDS011;5700;50.996;7.044;2023-10-09T16:21:30;8.60;;;3.90;;
11287;SDS011;5700;50.996;7.044;2023-10-09T16:24:31;9.05;;;4.18;;
11287;SDS011;5700;50.996;7.044;2023-10-09T16:27:34;9.10;;;4.07;;
11287;SDS011;5700;50.996;7.044;2023-10-09T16:30:36;8.27;;;4.07;;
11287;SDS011;5700;50.996;7.044;2023-10-09T16:33:38;9.25;;;3.85;;
11287;SDS011;5700;50.996;7.044;2023-10-09T16:36:40;8.65;;;4.28;;
11287;SDS011;5700;50.996;7.044;2023-10-09T16:39:43;10.13;;;3.60;;
11287;SDS011;5700;50.996;7.044;2023-10-09T16:42:44;8.43;;;3.90;;
11287;SDS011;5700;50.996;7.044;2023-10-09T16:45:46;8.93;;;4.38;;
11287;SDS011;5700;50.996;7.044;2023-10-09T16:48:48;7.22;;;3.50;;
11287;SDS011;5700;50.996;7.044;2023-10-09T16:51:53;8.20;;;3.80;;
11287;SDS011;5700;50.996;7.044;2023-10-09T16:54:55;9.48;;;4.43;;
11287;SDS011;5700;50.996;7.044;2023-10-09T16:57:57;8.50;;;3.78;;
11287;SDS011;5700;50.996;7.044;2023-10-09T17:00:58;8.65;;;3.83;;
11287;SDS011;5700;50.996;7.044;2023-10-09T17:04:03;10.30;;;3.92;;
11287;SDS011;5700;50.996;7.044;2023-10-09T17:07:07;8.85;;;4.20;;
11287;SDS011;5700;50.996;7.044;2023-10-09T17:10:14;7.78;;;4.00;;
11287;SDS011;5700;50.996;7.044;2023-10-09T17:13:15;10.48;;;4.25;;
11287;SDS011;5700;50.996;7.044;2023-10-09T17:16:21;12.57;;;4.13;;
11287;SDS011;5700;50.996;7.044;2023-10-09T17:19:24;7.82;;;4.50;;
11287;SDS011;5700;50.996;7.044;2023-10-09T17:22:27;10.52;;;5.20;;
11287;SDS011;5700;50.996;7.044;2023-10-09T17:25:29;11.32;;;4.93;;
11287;SDS011;5700;50.996;7.044;2023-10-09T17:28:31;9.20;;;4.90;;
11287;SDS011;5700;50.996;7.044;2023-10-09T17:31:32;11.43;;;5.10;;
11287;SDS011;5700;50.996;7.044;2023-10-09T17:34:35;11.93;;;5.07;;
11287;SDS011;5700;50.996;7.044;2023-10-09T17:37:40;13.00;;;5.57;;
11287;SDS011;5700;50.996;7.044;2023-10-09T17:40:44;9.23;;;4.60;;
11287;SDS011;5700;50.996;7.044;2023-10-09T17:43:48;8.57;;;4.25;;
11287;SDS011;5700;50.996;7.044;2023-10-09T17:46:50;11.00;;;4.45;;
11287;SDS011;5700;50.996;7.044;2023-10-09T17:49:52;7.38;;;3.85;;
11287;SDS011;5700;50.996;7.044;2023-10-09T17:52:55;7.93;;;3.85;;
11287;SDS011;5700;50.996;7.044;2023-10-09T17:55:59;12.88;;;5.00;;
11287;SDS011;5700;50.996;7.044;2023-10-09T17:59:00;8.55;;;4.85;;
11287;SDS011;5700;50.996;7.044;2023-10-09T18:02:03;8.30;;;5.00;;
11287;SDS011;5700;50.996;7.044;2023-10-09T18:05:05;9.27;;;4.25;;
11287;SDS011;5700;50.996;7.044;2023-10-09T18:08:10;9.45;;;4.20;;
11287;SDS011;5700;50.996;7.044;2023-10-09T18:11:14;9.45;;;4.13;;
11287;SDS011;5700;50.996;7.044;2023-10-09T18:14:17;8.93;;;4.65;;
11287;SDS011;5700;50.996;7.044;2023-10-09T18:17:19;10.30;;;4.60;;
11287;SDS011;5700;50.996;7.044;2023-10-09T18:20:21;11.32;;;4.93;;
11287;SDS011;5700;50.996;7.044;2023-10-09T18:23:24;9.98;;;4.80;;
11287;SDS011;5700;50.996;7.044;2023-10-09T18:26:29;11.40;;;4.45;;
11287;SDS011;5700;50.996;7.044;2023-10-09T18:29:30;11.00;;;4.90;;
11287;SDS011;5700;50.996;7.044;2023-10-09T18:32:32;10.77;;;4.65;;
11287;SDS011;5700;50.996;7.044;2023-10-09T18:35:33;9.65;;;4.72;;
11287;SDS011;5700;50.996;7.044;2023-10-09T18:38:39;8.40;;;4.57;;
11287;SDS011;5700;50.996;7.044;2023-10-09T18:41:44;8.68;;;4.63;;
11287;SDS011;5700;50.996;7.044;2023-10-09T18:44:48;10.05;;;5.00;;
11287;SDS011;5700;50.996;7.044;2023-10-09T18:47:49;9.85;;;4.32;;
11287;SDS011;5700;50.996;7.044;2023-10-09T18:50:53;10.35;;;5.15;;
11287;SDS011;5700;50.996;7.044;2023-10-09T18:53:56;6.90;;;3.92;;
11287;SDS011;5700;50.996;7.044;2023-10-09T18:57:00;9.82;;;4.97;;
11287;SDS011;5700;50.996;7.044;2023-10-09T19:00:03;9.85;;;4.65;;